Alderbury, United Kingdom
Current Conditions -  °F | °C
As of 10:15 AM on Friday 24 Oct 2014 (Local Time) from EGDM Reporting Station
Broken Clouds Broken Clouds  
Wind Chill: 59°   Ceiling: 1000
Heat Index: 59°   Visibility: 6mi
Dew Point: 57°   Wind: 9mph
Humidity: 94%   Direction: 190°S
Pressure: 29.94"   Gusts: NA
Location:  51.04°N, 1.73°W
Report Text: EGDM 240915Z 19008KT 9999 SCT004 BKN010 BKN100 15/14 Q1014 YLO2 TEMPO BKN008 GRN
Loading
Personal Weather Stations






























Interactive Weather Map
Tropical Storm Tracking
New forecast layout! Learn more

10-Day Weather Forecast

Advertisements
Track Severe Weather on mobile